Terminal Aerodrome Forecast
Issued by NWS Blacksburg, VA

Home | Current Version | Previous Version | Text Only | Print | Product List | Glossary On
Versions: 1 2 3 4 5 6 7 8 9 10 11 12 13 14 15 16 17 18 19 20 21 22 23 24 25 26 27 28 29 30 31 32 33 34 35 36
000
FTUS41 KRNK 191739
TAFLYH
TAF
KLYH 191739Z 1918/2018 02007KT P6SM OVC007
      TEMPO 1919/1921 SCT007 OVC040
     FM192100 05004KT P6SM SCT020 OVC040
     FM200700 00000KT 2SM BR OVC001
     FM200900 03002KT 1SM BR SCT250
     FM201400 VRB03KT P6SM SKC=

USA.gov is the U.S. government's official web portal to all federal, state and local government web resources and services.